Time;durP1;ratioP1;P1;durP2;ratioP2;P2;SDS_P1;SDS_P2;PMS_P1;PMS_P2;Temp;Humidity;BMP_temperature;BMP_pressure;BME280_temperature;BME280_humidity;BME280_pressure;Samples;Min_cycle;Max_cycle;Signal;HPM_P1;HPM_P2
2021/08/15 00:00:09;;;;;;;4.57;3.47;;;18.60;99.90;;;;;;4992737;28;20101;-76
2021/08/15 00:02:34;;;;;;;6.70;3.65;;;18.60;99.90;;;;;;4992021;28;20493;-75
2021/08/15 00:05:00;;;;;;;4.32;3.60;;;18.60;99.90;;;;;;4977175;28;20121;-75
2021/08/15 00:07:25;;;;;;;8.75;4.15;;;18.70;99.90;;;;;;4988985;28;20022;-76
2021/08/15 00:09:51;;;;;;;6.85;3.50;;;18.70;99.90;;;;;;4995816;28;20014;-75
2021/08/15 00:12:16;;;;;;;9.32;3.70;;;18.70;99.90;;;;;;4997191;28;20475;-76
2021/08/15 00:14:42;;;;;;;7.05;3.83;;;18.80;99.90;;;;;;4982881;28;20455;-76
2021/08/15 00:17:07;;;;;;;7.13;3.85;;;18.80;99.90;;;;;;4996011;28;20482;-76
2021/08/15 00:19:33;;;;;;;5.00;3.58;;;18.80;99.90;;;;;;4995999;28;20113;-75
2021/08/15 00:21:59;;;;;;;4.30;3.45;;;19.00;99.90;;;;;;4995972;28;20026;-75
2021/08/15 00:24:24;;;;;;;7.50;4.07;;;18.80;99.90;;;;;;4996228;28;20030;-76
2021/08/15 00:26:50;;;;;;;8.20;4.00;;;18.80;99.90;;;;;;4996395;28;20104;-76
2021/08/15 00:29:16;;;;;;;8.32;4.30;;;18.70;99.90;;;;;;4981967;28;20073;-75
2021/08/15 00:31:42;;;;;;;9.70;4.68;;;18.70;99.90;;;;;;4997718;28;20537;-76
2021/08/15 00:34:08;;;;;;;7.38;4.13;;;18.70;99.90;;;;;;4996581;28;20386;-76
2021/08/15 00:36:33;;;;;;;7.25;4.30;;;18.60;99.90;;;;;;4995342;28;20063;-76
2021/08/15 00:38:59;;;;;;;7.82;4.40;;;18.60;99.90;;;;;;4996165;28;20181;-76
2021/08/15 00:41:24;;;;;;;6.35;4.00;;;18.60;99.90;;;;;;4996392;28;20031;-74
2021/08/15 00:43:50;;;;;;;15.93;5.68;;;18.50;99.90;;;;;;4995360;28;20040;-75
2021/08/15 00:46:16;;;;;;;8.80;5.60;;;18.40;99.90;;;;;;4996254;28;20442;-76
2021/08/15 00:48:41;;;;;;;7.15;3.80;;;18.40;99.90;;;;;;4998069;28;20019;-76
2021/08/15 00:51:08;;;;;;;7.60;4.40;;;18.40;99.90;;;;;;4995876;28;20050;-76
2021/08/15 00:53:40;;;;;;;5.72;4.55;;;18.30;99.90;;;;;;4995916;28;20056;-75
2021/08/15 00:56:08;;;;;;;8.82;4.50;;;18.30;99.90;;;;;;4995868;28;20054;-77
2021/08/15 00:58:34;;;;;;;8.32;5.10;;;18.30;99.90;;;;;;4986392;28;20109;-76
2021/08/15 01:01:04;;;;;;;6.07;4.32;;;18.20;99.90;;;;;;4990729;28;20057;-77
2021/08/15 01:03:30;;;;;;;6.20;4.78;;;18.20;99.90;;;;;;4995706;28;20030;-76
2021/08/15 01:05:57;;;;;;;8.48;5.72;;;18.10;99.90;;;;;;4995320;28;20015;-76
2021/08/15 01:08:22;;;;;;;6.93;4.40;;;18.10;99.90;;;;;;4995482;28;20363;-76
2021/08/15 01:10:48;;;;;;;6.00;4.90;;;18.00;99.90;;;;;;4995087;28;20157;-75
2021/08/15 01:13:15;;;;;;;6.35;4.63;;;18.00;99.90;;;;;;4991338;28;20538;-76
2021/08/15 01:15:40;;;;;;;8.48;5.13;;;18.00;99.90;;;;;;4975597;28;20066;-77
2021/08/15 01:18:27;;;;;;;8.35;5.15;;;18.00;99.90;;;;;;4991464;28;20061;-77
2021/08/15 01:21:02;;;;;;;10.63;5.85;;;18.00;99.90;;;;;;4993475;28;20015;-77
2021/08/15 01:23:29;;;;;;;6.80;5.25;;;17.90;99.90;;;;;;4995040;28;20125;-77
2021/08/15 01:25:55;;;;;;;8.20;5.70;;;18.00;99.90;;;;;;4996837;28;20014;-77
2021/08/15 01:28:22;;;;;;;10.30;5.88;;;17.90;99.90;;;;;;4998249;28;20033;-77
2021/08/15 01:30:49;;;;;;;10.38;5.53;;;17.90;99.90;;;;;;4995151;28;20490;-76
2021/08/15 01:33:27;;;;;;;7.13;5.40;;;17.90;99.90;;;;;;4994747;28;20042;-76
2021/08/15 01:35:54;;;;;;;7.93;5.18;;;17.90;99.90;;;;;;4994995;28;20038;-76
2021/08/15 01:38:25;;;;;;;10.85;5.10;;;17.90;99.90;;;;;;4995148;28;20503;-77
2021/08/15 01:40:52;;;;;;;8.65;4.82;;;17.90;99.90;;;;;;4994581;28;20379;-75
2021/08/15 01:43:18;;;;;;;5.78;5.15;;;17.90;99.90;;;;;;4963960;28;20554;-76
2021/08/15 01:45:44;;;;;;;8.25;5.45;;;17.90;99.90;;;;;;4956134;28;20071;-76
2021/08/15 01:48:09;;;;;;;8.48;5.53;;;17.90;99.90;;;;;;4976876;28;20031;-76
2021/08/15 01:50:36;;;;;;;8.55;5.70;;;17.90;99.90;;;;;;4975062;28;20034;-76
2021/08/15 01:53:02;;;;;;;8.77;5.93;;;17.90;99.90;;;;;;4963893;28;20492;-75
2021/08/15 01:55:27;;;;;;;11.55;5.07;;;17.90;99.90;;;;;;4974378;28;20107;-78
2021/08/15 01:57:53;;;;;;;9.32;6.40;;;17.90;99.90;;;;;;4975378;28;20041;-77
2021/08/15 02:00:18;;;;;;;8.27;6.13;;;17.90;99.90;;;;;;4965550;28;20050;-77
2021/08/15 02:02:44;;;;;;;11.82;6.20;;;17.80;99.90;;;;;;4970186;28;20118;-75
2021/08/15 02:05:15;;;;;;;8.25;5.22;;;17.80;99.90;;;;;;4975111;28;20029;-75
2021/08/15 02:07:42;;;;;;;7.32;5.57;;;17.80;99.90;;;;;;4974351;28;20031;-76
2021/08/15 02:10:08;;;;;;;7.60;5.38;;;17.80;99.90;;;;;;4975070;28;20030;-77
2021/08/15 02:12:33;;;;;;;8.30;5.45;;;17.70;99.90;;;;;;4975279;28;20107;-76
2021/08/15 02:14:59;;;;;;;9.70;6.53;;;17.70;99.90;;;;;;4974881;28;20102;-76
2021/08/15 02:17:24;;;;;;;7.10;5.40;;;17.60;99.90;;;;;;4965188;28;20075;-76
2021/08/15 02:19:50;;;;;;;8.27;5.47;;;17.60;99.90;;;;;;4970979;28;20038;-76
2021/08/15 02:22:16;;;;;;;10.85;6.57;;;17.60;99.90;;;;;;4974445;28;20035;-75
2021/08/15 02:24:41;;;;;;;6.05;5.40;;;17.60;99.90;;;;;;4974679;28;20026;-77
2021/08/15 02:27:07;;;;;;;6.57;5.88;;;17.50;99.90;;;;;;4973976;28;20090;-77
2021/08/15 02:29:32;;;;;;;8.27;5.85;;;17.60;99.90;;;;;;4973886;28;20030;-76
2021/08/15 02:31:58;;;;;;;11.05;5.88;;;17.50;99.90;;;;;;4974578;28;20022;-76
2021/08/15 02:34:25;;;;;;;10.52;6.20;;;17.50;99.90;;;;;;4974173;28;20360;-76
2021/08/15 02:36:51;;;;;;;8.20;6.07;;;17.50;99.90;;;;;;4973226;28;20031;-76
2021/08/15 02:39:16;;;;;;;7.00;5.97;;;17.40;99.90;;;;;;4974929;28;20026;-75
2021/08/15 02:41:42;;;;;;;11.80;5.95;;;17.50;99.90;;;;;;4974017;28;20478;-76
2021/08/15 02:44:07;;;;;;;6.55;5.70;;;17.40;99.90;;;;;;4973935;28;20474;-77
2021/08/15 02:46:39;;;;;;;11.73;6.03;;;17.40;99.90;;;;;;4974146;28;20038;-76
2021/08/15 02:49:05;;;;;;;7.88;5.25;;;17.40;99.90;;;;;;4974347;28;20077;-77
2021/08/15 02:51:31;;;;;;;6.82;6.13;;;17.30;99.90;;;;;;4963664;28;20106;-77
2021/08/15 02:53:57;;;;;;;8.07;6.22;;;17.30;99.90;;;;;;4970050;28;20027;-77
2021/08/15 02:56:22;;;;;;;11.27;6.00;;;17.20;99.90;;;;;;4974528;28;20035;-76
2021/08/15 02:58:48;;;;;;;13.68;6.88;;;17.20;99.90;;;;;;4973194;28;20042;-76
2021/08/15 03:01:14;;;;;;;6.80;6.05;;;17.20;99.90;;;;;;4974029;28;20054;-77
2021/08/15 03:03:39;;;;;;;10.63;6.15;;;17.20;99.90;;;;;;4973853;28;20387;-77
2021/08/15 03:06:05;;;;;;;10.60;6.15;;;17.10;99.90;;;;;;4973336;28;20063;-78
2021/08/15 03:08:30;;;;;;;9.02;5.75;;;17.20;99.90;;;;;;4973755;28;20031;-77
2021/08/15 03:10:56;;;;;;;8.70;6.72;;;17.10;99.90;;;;;;4973045;28;20023;-75
2021/08/15 03:13:21;;;;;;;7.50;6.05;;;17.10;99.90;;;;;;4973952;28;20030;-75
2021/08/15 03:15:50;;;;;;;10.70;6.10;;;17.10;99.90;;;;;;4973449;28;20434;-76
2021/08/15 03:18:19;;;;;;;9.30;6.32;;;17.00;99.90;;;;;;4959435;28;20035;-76
2021/08/15 03:20:45;;;;;;;6.72;6.05;;;17.10;99.90;;;;;;4973284;28;20034;-76
2021/08/15 03:23:11;;;;;;;8.93;5.80;;;17.00;99.90;;;;;;4973567;28;20023;-75
2021/08/15 03:25:37;;;;;;;8.35;5.63;;;17.00;99.90;;;;;;4972777;28;20129;-76
2021/08/15 03:28:06;;;;;;;6.65;5.28;;;17.10;99.90;;;;;;4987434;28;20030;-75
2021/08/15 03:30:32;;;;;;;9.90;5.75;;;17.10;99.90;;;;;;4973415;28;20390;-76
2021/08/15 03:32:58;;;;;;;7.53;5.53;;;17.10;99.90;;;;;;4973384;28;20097;-76
2021/08/15 03:35:24;;;;;;;10.40;5.25;;;17.10;99.90;;;;;;4973990;28;20022;-76
2021/08/15 03:37:50;;;;;;;7.47;5.20;;;17.20;99.90;;;;;;4973638;28;20030;-76
2021/08/15 03:40:16;;;;;;;8.27;5.15;;;17.10;99.90;;;;;;4973058;28;20027;-76
2021/08/15 03:42:44;;;;;;;8.48;5.32;;;17.10;99.90;;;;;;4973297;28;20023;-76
2021/08/15 03:45:10;;;;;;;9.98;6.05;;;17.20;99.90;;;;;;4973308;28;20015;-77
2021/08/15 03:47:36;;;;;;;12.65;5.70;;;17.20;99.90;;;;;;4972897;28;20454;-76
2021/08/15 03:50:04;;;;;;;7.68;4.88;;;17.20;99.90;;;;;;4973281;28;20379;-77
2021/08/15 03:52:29;;;;;;;11.10;5.20;;;17.20;99.90;;;;;;4959560;28;20023;-76
2021/08/15 03:54:55;;;;;;;10.70;4.85;;;17.20;99.90;;;;;;4973030;28;20033;-76
2021/08/15 03:57:21;;;;;;;7.93;5.28;;;17.20;99.90;;;;;;4973245;28;20035;-76
2021/08/15 03:59:46;;;;;;;8.35;4.90;;;17.20;99.90;;;;;;4972760;28;20058;-75
2021/08/15 04:02:12;;;;;;;6.22;4.75;;;17.30;99.90;;;;;;4973148;28;20475;-77
2021/08/15 04:04:38;;;;;;;8.63;4.85;;;17.30;99.90;;;;;;4974503;28;20023;-76
2021/08/15 04:07:04;;;;;;;7.78;4.80;;;17.30;99.90;;;;;;4974370;28;20046;-76
2021/08/15 04:09:30;;;;;;;8.20;4.88;;;17.30;99.90;;;;;;4973384;28;20018;-76
2021/08/15 04:11:55;;;;;;;8.90;5.10;;;17.30;99.90;;;;;;4974097;28;20093;-76
2021/08/15 04:14:22;;;;;;;6.35;5.00;;;17.40;99.90;;;;;;4972600;28;20038;-75
2021/08/15 04:16:48;;;;;;;5.75;4.75;;;17.30;99.90;;;;;;4973180;28;20038;-75
2021/08/15 04:19:14;;;;;;;10.73;5.47;;;17.30;99.90;;;;;;4973249;28;20035;-77
2021/08/15 04:21:39;;;;;;;8.50;5.28;;;17.30;99.90;;;;;;4973758;28;20031;-77
2021/08/15 04:24:05;;;;;;;7.88;5.05;;;17.30;99.90;;;;;;4974059;28;20117;-76
2021/08/15 04:26:31;;;;;;;6.25;4.88;;;17.30;99.90;;;;;;4972931;28;20026;-75
2021/08/15 04:28:58;;;;;;;7.00;4.63;;;17.20;99.90;;;;;;4972346;28;20031;-76
2021/08/15 04:31:23;;;;;;;5.30;4.78;;;17.20;99.90;;;;;;4973088;28;20031;-75
2021/08/15 04:33:49;;;;;;;7.95;4.82;;;17.30;99.90;;;;;;4973070;28;20031;-75
2021/08/15 04:36:15;;;;;;;7.03;4.82;;;17.20;99.90;;;;;;4972439;28;20019;-76
2021/08/15 04:38:40;;;;;;;13.65;5.72;;;17.20;99.90;;;;;;4973138;28;20042;-76
2021/08/15 04:41:06;;;;;;;8.55;4.95;;;17.20;99.90;;;;;;4974299;28;20060;-76
2021/08/15 04:43:32;;;;;;;6.60;5.18;;;17.20;99.90;;;;;;4973043;28;20026;-76
2021/08/15 04:45:58;;;;;;;8.23;5.05;;;17.10;99.90;;;;;;4973268;28;20039;-76
2021/08/15 04:48:24;;;;;;;8.45;5.60;;;17.10;99.90;;;;;;4972678;28;20475;-76
2021/08/15 04:50:49;;;;;;;8.82;4.85;;;17.10;99.90;;;;;;4970668;28;20053;-76
2021/08/15 04:53:15;;;;;;;10.75;5.63;;;17.10;99.90;;;;;;4967306;28;20081;-77
2021/08/15 04:55:41;;;;;;;9.15;5.55;;;17.10;99.90;;;;;;4976073;28;20038;-76
2021/08/15 04:58:06;;;;;;;10.38;5.38;;;17.00;99.90;;;;;;4975467;28;20030;-76
2021/08/15 05:00:33;;;;;;;6.78;5.35;;;17.10;99.90;;;;;;4975889;28;20047;-77
2021/08/15 05:02:59;;;;;;;6.88;4.90;;;17.10;99.90;;;;;;4976527;28;20123;-77
2021/08/15 05:05:27;;;;;;;9.52;5.45;;;17.10;99.90;;;;;;4975968;28;20117;-76
2021/08/15 05:07:53;;;;;;;6.65;5.25;;;17.50;99.90;;;;;;4976166;28;20110;-76
2021/08/15 05:10:18;;;;;;;7.20;5.40;;;17.20;99.90;;;;;;4976348;28;20122;-76
2021/08/15 05:12:44;;;;;;;7.82;5.63;;;17.20;99.90;;;;;;4975691;28;20035;-75
2021/08/15 05:15:11;;;;;;;7.95;5.32;;;17.10;99.90;;;;;;4976502;28;20356;-76
2021/08/15 05:17:36;;;;;;;10.00;5.45;;;17.20;99.90;;;;;;4975107;28;20530;-76
2021/08/15 05:20:02;;;;;;;10.05;5.55;;;17.30;99.90;;;;;;4976564;28;20056;-76
2021/08/15 05:22:28;;;;;;;9.20;5.32;;;17.30;99.90;;;;;;4975755;28;20498;-77
2021/08/15 05:24:53;;;;;;;10.82;6.03;;;17.30;99.90;;;;;;4979830;28;20022;-77
2021/08/15 05:27:20;;;;;;;8.02;5.80;;;17.30;99.90;;;;;;4985063;28;20035;-77
2021/08/15 05:29:46;;;;;;;7.05;5.75;;;17.40;99.90;;;;;;4975747;28;20470;-77
2021/08/15 05:32:12;;;;;;;7.95;5.78;;;17.40;99.90;;;;;;4975459;28;20035;-77
2021/08/15 05:34:37;;;;;;;6.25;5.30;;;17.50;99.90;;;;;;4975527;28;20023;-76
2021/08/15 05:37:03;;;;;;;7.18;5.93;;;17.50;99.90;;;;;;4975900;28;20031;-76
2021/08/15 05:39:28;;;;;;;8.15;5.50;;;17.60;99.90;;;;;;4974793;28;20019;-76
2021/08/15 05:41:54;;;;;;;9.27;6.45;;;17.60;99.90;;;;;;4975474;28;20443;-76
2021/08/15 05:44:19;;;;;;;6.28;5.13;;;17.70;99.90;;;;;;4976174;28;20023;-77
2021/08/15 05:46:45;;;;;;;10.80;5.25;;;17.70;99.90;;;;;;4974712;28;20369;-77
2021/08/15 05:49:11;;;;;;;9.05;5.35;;;17.80;99.90;;;;;;4975796;28;20066;-77
2021/08/15 05:51:36;;;;;;;11.45;5.43;;;17.90;99.90;;;;;;4964969;28;20058;-76
2021/08/15 05:54:02;;;;;;;9.25;5.38;;;17.80;99.90;;;;;;4971574;28;20031;-76
2021/08/15 05:56:31;;;;;;;13.52;6.05;;;17.90;99.90;;;;;;4975232;28;20042;-77
2021/08/15 05:58:56;;;;;;;9.20;6.45;;;18.00;99.90;;;;;;4975652;28;20038;-76
2021/08/15 06:01:22;;;;;;;11.88;6.13;;;18.00;99.90;;;;;;4975205;28;20380;-76
2021/08/15 06:03:47;;;;;;;8.77;5.35;;;18.00;99.90;;;;;;4975571;28;20112;-75
2021/08/15 06:06:13;;;;;;;11.20;6.03;;;18.10;99.90;;;;;;4975620;28;20052;-76
2021/08/15 06:08:38;;;;;;;8.52;5.60;;;18.20;99.90;;;;;;4974262;28;20027;-77
2021/08/15 06:11:04;;;;;;;8.02;5.32;;;18.30;99.90;;;;;;4975617;28;20023;-77
2021/08/15 06:13:29;;;;;;;12.45;5.43;;;18.30;99.90;;;;;;4975021;28;20023;-78
2021/08/15 06:15:55;;;;;;;12.38;5.93;;;18.30;99.90;;;;;;4974635;28;20025;-78
2021/08/15 06:18:20;;;;;;;11.95;6.22;;;18.40;99.90;;;;;;4975437;28;20031;-76
2021/08/15 06:20:46;;;;;;;12.23;5.72;;;18.50;99.90;;;;;;4973289;28;20029;-77
2021/08/15 06:23:12;;;;;;;13.93;6.70;;;18.50;99.90;;;;;;4975329;28;20069;-76
2021/08/15 06:25:37;;;;;;;17.92;6.57;;;18.50;99.90;;;;;;4974770;28;20410;-75
2021/08/15 06:28:06;;;;;;;13.52;7.03;;;18.50;99.90;;;;;;4988136;28;20042;-76
2021/08/15 06:30:32;;;;;;;17.02;6.22;;;18.70;99.90;;;;;;4974647;28;20102;-77
2021/08/15 06:32:57;;;;;;;11.07;6.53;;;18.80;99.90;;;;;;4974430;28;20126;-76
2021/08/15 06:35:25;;;;;;;15.57;6.50;;;18.90;99.90;;;;;;4973885;28;20018;-76
2021/08/15 06:37:52;;;;;;;18.65;6.72;;;18.90;99.90;;;;;;4973959;28;20521;-77
2021/08/15 06:40:19;;;;;;;17.00;6.93;;;19.00;99.90;;;;;;4974361;28;20523;-76
2021/08/15 06:42:45;;;;;;;11.65;6.20;;;19.00;99.90;;;;;;4973438;28;20030;-78
2021/08/15 06:45:11;;;;;;;12.23;6.53;;;19.00;99.90;;;;;;4974519;28;20353;-77
2021/08/15 06:47:37;;;;;;;8.85;5.65;;;19.10;99.90;;;;;;4973991;28;20129;-77
2021/08/15 06:50:04;;;;;;;11.90;6.15;;;19.10;99.90;;;;;;4973128;28;20431;-77
2021/08/15 06:52:31;;;;;;;12.75;6.53;;;19.20;99.90;;;;;;4959938;28;20031;-77
2021/08/15 06:55:00;;;;;;;11.15;6.15;;;19.20;99.90;;;;;;4974471;28;20368;-78
2021/08/15 06:57:26;;;;;;;14.18;6.43;;;19.20;99.90;;;;;;4973541;28;20035;-77
2021/08/15 06:59:52;;;;;;;16.10;6.60;;;19.30;99.90;;;;;;4974154;28;20050;-77
2021/08/15 07:02:18;;;;;;;9.48;6.07;;;19.30;99.90;;;;;;4974018;28;20050;-77
2021/08/15 07:04:44;;;;;;;11.77;6.07;;;19.30;99.90;;;;;;4975276;28;20467;-76
2021/08/15 07:07:10;;;;;;;15.23;6.47;;;19.20;99.90;;;;;;4975146;28;20023;-76
2021/08/15 07:09:36;;;;;;;25.35;6.90;;;19.00;99.90;;;;;;4973706;28;20034;-77
2021/08/15 07:12:01;;;;;;;14.00;6.80;;;19.10;99.90;;;;;;4972841;28;20459;-77
2021/08/15 07:14:29;;;;;;;18.75;7.53;;;19.00;99.90;;;;;;4975096;28;20077;-77
2021/08/15 07:16:58;;;;;;;14.82;6.90;;;19.00;99.90;;;;;;4974868;28;20105;-76
2021/08/15 07:19:24;;;;;;;18.73;6.57;;;18.90;99.90;;;;;;4974575;28;20073;-77
2021/08/15 07:21:50;;;;;;;14.95;6.85;;;18.80;99.90;;;;;;4973879;28;20050;-78
2021/08/15 07:24:16;;;;;;;13.45;6.28;;;18.90;99.90;;;;;;4973572;28;20034;-76
2021/08/15 07:26:42;;;;;;;22.02;8.68;;;18.90;99.90;;;;;;4974076;28;20027;-76
2021/08/15 07:29:08;;;;;;;17.52;7.32;;;18.90;99.90;;;;;;4974529;28;20027;-77
2021/08/15 07:31:33;;;;;;;9.02;6.03;;;19.00;99.90;;;;;;4973328;28;20026;-77
2021/08/15 07:33:59;;;;;;;14.63;6.20;;;19.00;99.90;;;;;;4974178;28;20109;-76
2021/08/15 07:36:25;;;;;;;12.18;6.63;;;19.10;99.90;;;;;;4974278;28;20022;-76
2021/08/15 07:38:50;;;;;;;14.75;7.20;;;19.20;99.90;;;;;;4976293;28;20027;-76
2021/08/15 07:41:16;;;;;;;14.85;6.82;;;19.30;99.90;;;;;;4974517;28;20494;-76
2021/08/15 07:43:42;;;;;;;12.55;6.32;;;19.40;99.90;;;;;;4973600;28;20019;-78
2021/08/15 07:46:08;;;;;;;24.10;8.02;;;19.50;99.90;;;;;;4973277;28;20019;-77
2021/08/15 07:48:34;;;;;;;20.23;7.65;;;19.50;99.90;;;;;;4977083;28;20126;-76
2021/08/15 07:50:59;;;;;;;16.17;7.28;;;19.60;99.90;;;;;;4978628;28;20024;-75
2021/08/15 07:53:27;;;;;;;16.38;7.13;;;20.20;99.90;;;;;;4965397;28;20034;-78
2021/08/15 07:55:54;;;;;;;20.42;7.63;;;19.60;99.90;;;;;;4975482;28;20026;-76
2021/08/15 07:58:21;;;;;;;13.68;6.18;;;19.60;99.90;;;;;;4973882;28;20395;-77
2021/08/15 08:00:47;;;;;;;8.48;6.28;;;19.70;99.90;;;;;;4972723;28;20054;-77
2021/08/15 08:03:13;;;;;;;16.23;6.53;;;19.80;99.90;;;;;;4973628;28;20077;-77
2021/08/15 08:05:40;;;;;;;15.32;6.47;;;19.90;99.90;;;;;;4973417;28;20410;-77
2021/08/15 08:08:06;;;;;;;19.15;7.30;;;19.80;99.90;;;;;;4973068;28;20026;-78
2021/08/15 08:10:32;;;;;;;11.52;6.22;;;19.90;99.90;;;;;;4974020;28;20019;-78
2021/08/15 08:12:57;;;;;;;9.93;6.22;;;19.90;99.90;;;;;;4974199;28;20452;-77
2021/08/15 08:15:23;;;;;;;14.75;6.88;;;19.90;99.90;;;;;;4973341;28;20034;-76
2021/08/15 08:17:49;;;;;;;9.13;6.13;;;20.00;99.90;;;;;;4973021;28;20081;-77
2021/08/15 08:20:17;;;;;;;15.35;6.60;;;20.00;99.90;;;;;;4973770;28;20495;-77
2021/08/15 08:22:46;;;;;;;13.48;6.88;;;20.00;99.90;;;;;;4972995;28;20042;-77
2021/08/15 08:25:11;;;;;;;15.73;6.60;;;20.10;99.90;;;;;;4976237;28;20154;-78
2021/08/15 08:27:37;;;;;;;11.52;7.20;;;20.20;99.90;;;;;;4976596;28;20105;-78
2021/08/15 08:30:04;;;;;;;16.48;7.45;;;20.20;99.90;;;;;;4982390;28;20027;-77
2021/08/15 08:32:29;;;;;;;13.05;6.65;;;20.20;99.90;;;;;;4985466;28;20031;-77
2021/08/15 08:34:55;;;;;;;10.57;6.47;;;20.30;99.90;;;;;;4976181;28;20038;-77
2021/08/15 08:37:22;;;;;;;13.85;6.75;;;20.30;99.90;;;;;;4977335;28;20386;-76
2021/08/15 08:39:48;;;;;;;16.45;6.68;;;20.30;99.90;;;;;;4977179;28;20037;-76
2021/08/15 08:42:14;;;;;;;17.00;7.63;;;20.20;99.90;;;;;;4976619;28;20113;-76
2021/08/15 08:44:40;;;;;;;11.27;6.47;;;20.20;99.90;;;;;;4976811;28;20058;-78
2021/08/15 08:47:09;;;;;;;14.23;7.18;;;20.20;99.90;;;;;;4977840;28;20039;-77
2021/08/15 08:49:37;;;;;;;13.63;6.80;;;20.10;99.90;;;;;;4976365;28;20081;-78
2021/08/15 08:52:04;;;;;;;12.88;6.25;;;20.20;99.90;;;;;;4963444;28;20110;-77
2021/08/15 08:54:30;;;;;;;13.90;6.82;;;20.20;99.90;;;;;;4976708;28;20383;-77
2021/08/15 08:56:57;;;;;;;10.13;5.80;;;20.30;99.90;;;;;;4976802;28;20073;-77
2021/08/15 08:59:23;;;;;;;14.73;5.50;;;20.40;99.90;;;;;;4976497;28;20041;-77
2021/08/15 09:01:49;;;;;;;15.55;5.38;;;20.40;99.90;;;;;;4976847;28;20079;-78
2021/08/15 09:04:14;;;;;;;11.85;5.95;;;20.50;99.90;;;;;;4976469;28;20066;-76
2021/08/15 09:06:40;;;;;;;12.68;5.90;;;20.60;99.90;;;;;;4976989;28;20038;-78
2021/08/15 09:09:13;;;;;;;12.73;5.55;;;20.70;99.90;;;;;;4976969;28;20023;-78
2021/08/15 09:11:40;;;;;;;13.30;5.15;;;20.80;99.90;;;;;;4976491;28;20182;-77
2021/08/15 09:14:11;;;;;;;10.57;4.47;;;20.80;99.90;;;;;;4976741;28;20050;-76
2021/08/15 09:16:55;;;;;;;9.85;4.43;;;20.90;99.90;;;;;;4963661;28;20110;-77
2021/08/15 09:19:26;;;;;;;13.68;5.18;;;20.90;99.90;;;;;;4976591;28;20043;-77
2021/08/15 09:21:55;;;;;;;12.18;5.28;;;22.00;99.90;;;;;;4976192;28;20025;-77
2021/08/15 09:24:20;;;;;;;11.02;4.82;;;21.00;99.90;;;;;;4975375;28;20033;-76
2021/08/15 09:26:58;;;;;;;10.30;5.32;;;21.10;99.90;;;;;;4976247;28;20086;-77
2021/08/15 09:29:32;;;;;;;15.15;6.05;;;21.10;99.90;;;;;;4978838;28;20416;-76
2021/08/15 09:31:58;;;;;;;14.68;5.75;;;21.20;99.90;;;;;;4984909;28;20467;-77
2021/08/15 09:34:26;;;;;;;11.23;6.28;;;21.20;99.90;;;;;;4979332;28;20041;-77
2021/08/15 09:36:52;;;;;;;11.38;5.68;;;21.20;99.90;;;;;;4975602;28;20485;-78
2021/08/15 09:39:39;;;;;;;15.13;5.57;;;21.20;99.90;;;;;;4975160;28;20089;-78
2021/08/15 09:42:08;;;;;;;13.65;5.88;;;21.20;99.90;;;;;;4962554;28;20070;-77
2021/08/15 09:44:33;;;;;;;12.48;5.75;;;21.40;99.90;;;;;;4975807;28;20059;-77
2021/08/15 09:47:09;;;;;;;12.48;5.10;;;21.40;99.90;;;;;;4974916;28;20471;-78
2021/08/15 09:49:40;;;;;;;10.00;4.68;;;21.50;99.90;;;;;;4975387;28;20042;-77
2021/08/15 09:52:11;;;;;;;13.70;4.18;;;21.60;99.90;;;;;;4961246;28;20073;-77
2021/08/15 09:54:38;;;;;;;8.80;4.00;;;21.60;99.90;;;;;;4975082;28;20030;-77
2021/08/15 09:57:09;;;;;;;7.90;3.08;;;21.60;99.90;;;;;;4975493;28;20059;-77
2021/08/15 09:59:37;;;;;;;7.00;4.00;;;21.70;99.90;;;;;;4980134;28;20034;-78
2021/08/15 10:02:04;;;;;;;12.52;4.50;;;21.80;99.90;;;;;;4982133;28;20034;-78
2021/08/15 10:04:34;;;;;;;9.75;3.72;;;21.90;99.90;;;;;;4975393;28;20027;-75
2021/08/15 10:07:00;;;;;;;8.40;4.72;;;22.00;99.90;;;;;;4974598;28;20470;-76
2021/08/15 10:09:27;;;;;;;10.32;4.28;;;22.00;99.90;;;;;;4975030;28;20038;-78
2021/08/15 10:11:53;;;;;;;9.15;3.70;;;22.20;99.90;;;;;;4975425;28;20027;-79
2021/08/15 10:14:19;;;;;;;6.53;3.50;;;22.20;99.90;;;;;;4974253;28;20031;-78
2021/08/15 10:17:03;;;;;;;7.95;3.22;;;22.30;99.90;;;;;;4974384;28;20062;-78
2021/08/15 10:19:41;;;;;;;7.30;3.33;;;22.30;99.90;;;;;;4974305;28;20166;-77
2021/08/15 10:22:07;;;;;;;4.68;3.33;;;22.40;99.90;;;;;;4974203;28;20019;-79
2021/08/15 10:24:48;;;;;;;7.88;3.53;;;22.50;99.90;;;;;;4974265;28;20473;-78
2021/08/15 10:27:39;;;;;;;7.75;3.75;;;22.50;99.90;;;;;;4973958;28;20451;-78
2021/08/15 10:30:13;;;;;;;;;;;22.60;99.90;;;;;;4975041;28;20019;-77
2021/08/15 10:32:58;;;;;;;4.78;3.50;;;22.80;99.90;;;;;;4974279;28;19953;-79
2021/08/15 10:35:25;;;;;;;7.03;3.10;;;23.00;99.90;;;;;;4973640;28;20095;-78
2021/08/15 10:37:53;;;;;;;7.28;4.32;;;23.20;99.90;;;;;;4974446;28;20372;-77
2021/08/15 10:40:40;;;;;;;8.75;3.53;;;23.40;99.90;;;;;;4974929;28;20030;-76
2021/08/15 10:43:14;;;;;;;5.50;3.13;;;23.50;99.90;;;;;;4973682;28;20027;-77
2021/08/15 10:45:42;;;;;;;9.07;3.33;;;23.70;99.90;;;;;;4974179;28;20073;-77
2021/08/15 10:48:12;;;;;;;6.88;3.30;;;23.90;99.90;;;;;;4973018;28;20094;-78
2021/08/15 10:50:46;;;;;;;5.10;3.00;;;24.10;99.90;;;;;;4974688;28;20056;-78
2021/08/15 10:53:30;;;;;;;5.80;2.97;;;24.20;99.90;;;;;;4974663;28;20027;-77
2021/08/15 10:55:57;;;;;;;5.90;3.00;;;24.40;99.90;;;;;;4973926;28;20110;-77
2021/08/15 10:58:39;;;;;;;5.90;2.65;;;24.40;99.90;;;;;;4974211;28;20031;-77
2021/08/15 11:01:06;;;;;;;5.22;2.55;;;24.50;99.90;;;;;;4973793;28;20070;-77
2021/08/15 11:03:33;;;;;;;7.03;3.03;;;24.60;99.90;;;;;;4973407;28;20033;-78
2021/08/15 11:06:02;;;;;;;4.38;2.10;;;24.70;99.90;;;;;;4973974;28;20042;-78
2021/08/15 11:08:33;;;;;;;4.68;2.08;;;24.70;99.90;;;;;;4974253;28;20031;-77
2021/08/15 11:11:16;;;;;;;4.65;2.40;;;24.80;99.90;;;;;;4973463;28;20030;-79
2021/08/15 11:13:41;;;;;;;3.17;2.03;;;24.90;99.90;;;;;;4975784;28;20037;-77
2021/08/15 11:16:25;;;;;;;5.38;1.58;;;24.90;99.90;;;;;;4973348;28;20023;-78
2021/08/15 11:19:09;;;;;;;8.88;2.50;;;25.00;99.90;;;;;;4973545;28;20034;-77
2021/08/15 11:22:15;;;;;;;12.27;2.70;;;24.80;99.90;;;;;;4973467;28;20033;-78
2021/08/15 11:24:43;;;;;;;3.60;1.95;;;24.70;99.90;;;;;;4972832;28;20379;-78
2021/08/15 11:27:18;;;;;;;3.95;1.85;;;24.70;99.90;;;;;;4983117;28;20019;-79
2021/08/15 11:29:47;;;;;;;2.83;2.00;;;24.80;99.90;;;;;;4976345;28;20096;-78
2021/08/15 11:32:16;;;;;;;2.67;2.00;;;24.80;99.90;;;;;;4975036;28;20023;-80
2021/08/15 11:35:07;;;;;;;2.50;1.90;;;24.80;99.90;;;;;;4973578;28;20081;-80
2021/08/15 11:37:49;;;;;;;3.75;2.33;;;24.80;99.90;;;;;;4972810;28;20178;-80
2021/08/15 11:40:19;;;;;;;3.67;2.50;;;24.80;99.90;;;;;;4973290;28;20093;-79
2021/08/15 11:43:09;;;;;;;4.65;3.17;;;24.80;99.90;;;;;;4973187;28;20059;-79
2021/08/15 11:45:40;;;;;;;4.38;2.20;;;24.90;99.90;;;;;;4960406;28;20085;-78
2021/08/15 11:48:24;;;;;;;6.47;2.30;;;24.90;99.90;;;;;;4973797;28;20435;-78
2021/08/15 11:50:55;;;;;;;5.80;3.10;;;24.80;99.90;;;;;;4971021;28;20054;-77
2021/08/15 11:53:35;;;;;;;4.45;2.45;;;24.70;99.90;;;;;;4971945;28;20066;-78
2021/08/15 11:56:09;;;;;;;4.72;2.45;;;24.50;99.90;;;;;;4977470;28;20019;-75
2021/08/15 11:58:46;;;;;;;4.28;2.53;;;24.50;99.90;;;;;;4979046;28;20042;-77
2021/08/15 12:01:12;;;;;;;5.57;2.88;;;24.50;99.90;;;;;;4977535;28;20125;-78
2021/08/15 12:03:38;;;;;;;8.85;2.80;;;24.60;99.90;;;;;;4977320;28;20038;-77
2021/08/15 12:06:07;;;;;;;4.82;2.78;;;24.50;99.90;;;;;;4977084;28;20023;-78
2021/08/15 12:08:40;;;;;;;6.47;2.47;;;24.60;99.90;;;;;;4977145;28;20510;-79
2021/08/15 12:11:27;;;;;;;7.78;2.53;;;24.60;99.90;;;;;;4977254;28;20030;-78
2021/08/15 12:13:54;;;;;;;3.58;2.40;;;24.70;99.90;;;;;;4976392;28;20093;-76
2021/08/15 12:16:25;;;;;;;6.18;2.70;;;24.70;99.90;;;;;;4976886;28;20041;-79
2021/08/15 12:18:53;;;;;;;4.10;2.63;;;24.80;99.90;;;;;;4976872;28;20046;-79
2021/08/15 12:21:20;;;;;;;6.80;2.70;;;24.80;99.90;;;;;;4976234;28;20533;-78
2021/08/15 12:23:58;;;;;;;3.95;2.30;;;24.80;99.90;;;;;;4976836;28;20116;-77
2021/08/15 12:26:28;;;;;;;4.65;2.00;;;24.90;99.90;;;;;;4977076;28;20023;-78
2021/08/15 12:28:59;;;;;;;4.57;2.33;;;24.90;99.90;;;;;;4976955;28;20026;-79
2021/08/15 12:31:28;;;;;;;5.22;2.72;;;25.00;99.90;;;;;;4977027;28;20498;-77
2021/08/15 12:34:07;;;;;;;5.18;2.40;;;25.10;99.90;;;;;;4976661;28;20035;-78
2021/08/15 12:36:54;;;;;;;8.05;2.50;;;25.10;99.90;;;;;;4976767;28;20119;-77
2021/08/15 12:39:33;;;;;;;6.45;2.72;;;25.10;99.90;;;;;;4978297;28;20081;-77
2021/08/15 12:42:04;;;;;;;4.65;3.20;;;25.10;99.90;;;;;;4978013;28;20483;-77
2021/08/15 12:44:53;;;;;;;5.82;2.38;;;25.10;99.90;;;;;;4976834;28;20029;-78
2021/08/15 12:47:39;;;;;;;3.22;2.28;;;25.10;99.90;;;;;;4977158;28;20054;-79